createdAt,value
2018-12-07T00:00:08.692Z,35.44
2018-12-07T00:01:08.672Z,34.59
2018-12-07T00:02:08.662Z,34.88
2018-12-07T00:03:08.645Z,34.69
2018-12-07T00:04:08.635Z,34.78
2018-12-07T00:05:08.620Z,34.88
2018-12-07T00:06:08.614Z,34.11
2018-12-07T00:07:08.597Z,33.45
2018-12-07T00:08:08.590Z,33.17
2018-12-07T00:09:08.573Z,33.17
2018-12-07T00:10:08.561Z,32.21
2018-12-07T00:11:08.548Z,32.31
2018-12-07T00:12:08.539Z,32.03
2018-12-07T00:13:08.523Z,32.03
2018-12-07T00:14:08.514Z,32.21
2018-12-07T00:15:08.495Z,32.4
2018-12-07T00:16:08.486Z,32.12
2018-12-07T00:17:08.476Z,31.26
2018-12-07T00:18:08.459Z,31.36
2018-12-07T00:19:08.448Z,30.98
2018-12-07T00:20:08.440Z,30.69
2018-12-07T00:21:08.422Z,30.22
2018-12-07T00:22:08.408Z,30.22
2018-12-07T00:23:08.397Z,29.17
2018-12-07T00:24:08.385Z,28.89
2018-12-07T00:25:08.369Z,28.23
2018-12-07T00:26:08.358Z,28.14
2018-12-07T00:27:08.099Z,27.86
2018-12-07T00:28:08.332Z,27.27
2018-12-07T00:29:08.321Z,27
2018-12-07T00:30:08.325Z,27
2018-12-07T00:31:08.296Z,26.34
2018-12-07T00:32:08.286Z,26.34
2018-12-07T00:33:08.275Z,26.05
2018-12-07T00:34:08.261Z,25.46
2018-12-07T00:35:08.245Z,25.57
2018-12-07T00:36:08.235Z,25.48
2018-12-07T00:37:07.973Z,25.86
2018-12-07T00:38:08.213Z,25.57
2018-12-07T00:39:08.295Z,25.48
2018-12-07T00:40:08.186Z,25.67
2018-12-07T00:41:08.169Z,25.48
2018-12-07T00:42:08.161Z,25.38
2018-12-07T00:43:08.147Z,25.38
2018-12-07T00:44:08.139Z,25.67
2018-12-07T00:45:08.121Z,25.86
2018-12-07T00:46:08.112Z,25.95
2018-12-07T00:47:08.098Z,26.05
2018-12-07T00:48:08.088Z,26.34
2018-12-07T00:49:08.075Z,26.53
2018-12-07T00:50:08.058Z,26.81
2018-12-07T00:51:08.047Z,27.19
2018-12-07T00:52:08.039Z,27.38
2018-12-07T00:53:08.024Z,27.86
2018-12-07T00:54:08.011Z,27.95
2018-12-07T00:55:08.001Z,28.14
2018-12-07T00:56:07.988Z,28.9
2018-12-07T00:57:07.976Z,28.81
2018-12-07T00:58:07.969Z,29
2018-12-07T00:59:07.951Z,29.28
2018-12-07T01:00:07.940Z,29.38
2018-12-07T01:01:07.925Z,29.57
2018-12-07T01:02:07.928Z,30.04
2018-12-07T01:03:07.903Z,30.33
2018-12-07T01:04:07.903Z,30.33
2018-12-07T01:05:07.877Z,30.52
2018-12-07T01:06:07.866Z,30.8
2018-12-07T01:07:07.605Z,30.71
2018-12-07T01:08:07.836Z,30.71
2018-12-07T01:09:07.831Z,30.43
2018-12-07T01:10:07.815Z,30.62
2018-12-07T01:11:07.804Z,30.71
2018-12-07T01:12:07.795Z,30.71
2018-12-07T01:13:07.777Z,30.62
2018-12-07T01:14:07.767Z,30.71
2018-12-07T01:15:07.755Z,30.8
2018-12-07T01:16:07.746Z,30.62
2018-12-07T01:17:07.730Z,30.8
2018-12-07T01:18:07.716Z,30.8
2018-12-07T01:19:07.454Z,30.8
2018-12-07T01:20:07.689Z,30.62
2018-12-07T01:21:07.680Z,30.52
2018-12-07T01:22:07.698Z,30.52
2018-12-07T01:23:07.659Z,30.62
2018-12-07T01:24:07.644Z,31.28
2018-12-07T01:25:07.627Z,31.18
2018-12-07T01:26:07.618Z,31.56
2018-12-07T01:27:07.381Z,31.66
2018-12-07T01:28:07.597Z,31.37
2018-12-07T01:29:07.595Z,31.28
2018-12-07T01:30:07.570Z,31.37
2018-12-07T01:31:07.560Z,30.99
2018-12-07T01:32:07.556Z,30.52
2018-12-07T01:33:07.541Z,30.99
2018-12-07T01:34:07.523Z,30.62
2018-12-07T01:35:07.513Z,30.62
2018-12-07T01:36:07.496Z,30.8
2018-12-07T01:37:07.496Z,30.71
2018-12-07T01:38:07.471Z,30.99
2018-12-07T01:39:07.537Z,30.8
2018-12-07T01:40:07.447Z,30.71
2018-12-07T01:41:07.441Z,30.43
2018-12-07T01:42:07.427Z,30.43
2018-12-07T01:43:07.412Z,30.43
2018-12-07T01:44:07.405Z,30.71
2018-12-07T01:45:07.387Z,30.62
2018-12-07T01:46:07.379Z,30.43
2018-12-07T01:47:07.366Z,30.52
2018-12-07T01:48:07.357Z,30.43
2018-12-07T01:49:07.338Z,30.8
2018-12-07T01:50:07.331Z,30.8
2018-12-07T01:51:07.319Z,30.52
2018-12-07T01:52:07.304Z,30.52
2018-12-07T01:53:07.294Z,30.8
2018-12-07T01:54:07.282Z,30.43
2018-12-07T01:55:07.023Z,30.33
2018-12-07T01:56:07.257Z,30.62
2018-12-07T01:57:06.995Z,30.62
2018-12-07T01:58:07.232Z,30.71
2018-12-07T01:59:07.223Z,30.52
2018-12-07T02:00:07.211Z,30.9
2018-12-07T02:01:07.198Z,31.47
2018-12-07T02:02:07.187Z,31.56
2018-12-07T02:03:07.175Z,31.56
2018-12-07T02:04:07.160Z,31.37
2018-12-07T02:05:07.150Z,31.37
2018-12-07T02:06:07.135Z,31.66
2018-12-07T02:07:07.125Z,31.47
2018-12-07T02:08:07.114Z,31.37
2018-12-07T02:09:07.098Z,31.85
2018-12-07T02:10:07.090Z,31.56
2018-12-07T02:11:07.088Z,31.47
2018-12-07T02:12:07.069Z,31.66
2018-12-07T02:13:07.055Z,31.76
2018-12-07T02:14:06.791Z,32.04
2018-12-07T02:15:07.027Z,32.32
2018-12-07T02:16:07.017Z,31.85
2018-12-07T02:17:07.007Z,32.23
2018-12-07T02:18:06.995Z,32.14
2018-12-07T02:19:06.979Z,32.14
2018-12-07T02:20:06.968Z,32.51
2018-12-07T02:21:06.954Z,32.42
2018-12-07T02:22:06.945Z,32.14
2018-12-07T02:23:06.932Z,32.51
2018-12-07T02:24:06.919Z,32.99
2018-12-07T02:25:06.660Z,33.09
2018-12-07T02:26:06.899Z,33.18
2018-12-07T02:27:06.637Z,33.47
2018-12-07T02:28:06.873Z,33.84
2018-12-07T02:29:06.865Z,33.94
2018-12-07T02:30:06.857Z,33.94
2018-12-07T02:31:06.840Z,34.51
2018-12-07T02:32:06.823Z,34.61
2018-12-07T02:33:06.818Z,34.51
2018-12-07T02:34:06.802Z,34.51
2018-12-07T02:35:06.788Z,34.61
2018-12-07T02:36:06.781Z,34.89
2018-12-07T02:37:06.767Z,34.61
2018-12-07T02:38:06.762Z,34.89
2018-12-07T02:39:06.750Z,34.44
2018-12-07T02:40:06.731Z,34.91
2018-12-07T02:41:06.729Z,34.89
2018-12-07T02:42:06.708Z,34.81
2018-12-07T02:43:06.696Z,34.44
2018-12-07T02:44:06.684Z,35.48
2018-12-07T02:45:06.677Z,35.86
2018-12-07T02:46:06.657Z,36.05
2018-12-07T02:47:06.648Z,35.94
2018-12-07T02:48:06.641Z,36.53
2018-12-07T02:49:06.620Z,36.62
2018-12-07T02:50:06.615Z,36.53
2018-12-07T02:51:06.599Z,36.72
2018-12-07T02:52:06.601Z,36.98
2018-12-07T02:53:06.587Z,37.19
2018-12-07T02:54:06.572Z,37.38
2018-12-07T02:55:06.549Z,37.38
2018-12-07T02:56:06.545Z,38.05
2018-12-07T02:57:06.591Z,38.05
2018-12-07T02:58:06.525Z,38.43
2018-12-07T02:59:06.503Z,38.62
2018-12-07T03:00:06.494Z,38.9
2018-12-07T03:01:06.483Z,39.48
2018-12-07T03:02:06.487Z,39.86
2018-12-07T03:03:06.457Z,40.14
2018-12-07T03:04:06.446Z,40.81
2018-12-07T03:05:06.435Z,41.47
2018-12-07T03:06:06.419Z,41.95
2018-12-07T03:07:06.414Z,42.33
2018-12-07T03:08:06.148Z,41.95
2018-12-07T03:09:06.386Z,41.95
2018-12-07T03:10:06.379Z,41.85
2018-12-07T03:11:06.382Z,42.14
2018-12-07T03:12:06.352Z,41.95
2018-12-07T03:13:06.339Z,42.52
2018-12-07T03:14:06.406Z,42.71
2018-12-07T03:15:06.312Z,42.9
2018-12-07T03:16:06.300Z,42.8
2018-12-07T03:17:06.298Z,42.9
2018-12-07T03:18:06.281Z,42.9
2018-12-07T03:19:06.272Z,42.71
2018-12-07T03:20:06.258Z,42.9
2018-12-07T03:21:06.248Z,42.8
2018-12-07T03:22:06.236Z,42.9
2018-12-07T03:23:06.221Z,42.8
2018-12-07T03:24:06.207Z,42.9
2018-12-07T03:25:06.199Z,42.99
2018-12-07T03:26:06.188Z,42.99
2018-12-07T03:27:06.174Z,42.61
2018-12-07T03:28:06.165Z,42.61
2018-12-07T03:29:05.905Z,42.14
2018-12-07T03:30:06.144Z,42.24
2018-12-07T03:31:06.146Z,42.14
2018-12-07T03:32:06.121Z,41.47
2018-12-07T03:33:05.862Z,41.66
2018-12-07T03:34:06.095Z,41.38
2018-12-07T03:35:06.084Z,40.9
2018-12-07T03:36:06.065Z,40.43
2018-12-07T03:37:06.065Z,39.86
2018-12-07T03:38:06.047Z,39.48
2018-12-07T03:39:05.793Z,39.19
2018-12-07T03:40:06.025Z,38.81
2018-12-07T03:41:06.010Z,38.34
2018-12-07T03:42:05.999Z,38.24
2018-12-07T03:43:05.985Z,37.86
2018-12-07T03:44:05.985Z,37.48
2018-12-07T03:45:05.962Z,37.19
2018-12-07T03:46:05.955Z,37.1
2018-12-07T03:47:05.943Z,37.1
2018-12-07T03:48:05.939Z,36.53
2018-12-07T03:49:05.666Z,36.53
2018-12-07T03:50:05.905Z,35.96
2018-12-07T03:51:05.891Z,35.86
2018-12-07T03:52:05.883Z,35.48
2018-12-07T03:53:05.875Z,34.91
2018-12-07T03:54:05.856Z,34.05
2018-12-07T03:55:05.853Z,33.77
2018-12-07T03:56:05.860Z,33.01
2018-12-07T03:57:05.823Z,32.72
2018-12-07T03:58:05.560Z,32.34
2018-12-07T03:59:05.799Z,31.96
2018-12-07T04:00:05.798Z,31.96
2018-12-07T04:01:05.776Z,31.39
2018-12-07T04:02:05.765Z,30.73
2018-12-07T04:03:05.507Z,30.63
2018-12-07T04:04:05.741Z,30.63
2018-12-07T04:05:05.728Z,30.06
2018-12-07T04:06:05.784Z,29.68
2018-12-07T04:07:05.705Z,28.63
2018-12-07T04:08:05.699Z,27.97
2018-12-07T04:09:05.681Z,27.97
2018-12-07T04:10:05.671Z,27.87
2018-12-07T04:11:05.657Z,27.68
2018-12-07T04:12:05.648Z,27.01
2018-12-07T04:13:05.664Z,26.06
2018-12-07T04:14:05.646Z,26.25
2018-12-07T04:15:05.631Z,25.59
2018-12-07T04:16:05.601Z,25.02
2018-12-07T04:17:05.590Z,24.54
2018-12-07T04:18:05.577Z,24.63
2018-12-07T04:19:05.562Z,24.44
2018-12-07T04:20:05.554Z,23.21
2018-12-07T04:21:05.550Z,22.16
2018-12-07T04:22:05.538Z,21.78
2018-12-07T04:23:05.518Z,21.88
2018-12-07T04:24:05.514Z,21.59
2018-12-07T04:25:05.500Z,21.5
2018-12-07T04:26:05.489Z,20.25
2018-12-07T04:27:05.468Z,20.26
2018-12-07T04:28:05.462Z,20.17
2018-12-07T04:29:05.450Z,19.59
2018-12-07T04:30:05.437Z,19.88
2018-12-07T04:31:05.427Z,19.78
2018-12-07T04:32:05.414Z,19.59
2018-12-07T04:33:05.398Z,19.88
2018-12-07T04:34:05.386Z,20.07
2018-12-07T04:35:05.381Z,20.17
2018-12-07T04:36:09.961Z,20.07
2018-12-07T04:37:05.356Z,20.26
2018-12-07T04:38:05.092Z,20.36
2018-12-07T04:39:05.330Z,20.36
2018-12-07T04:40:05.319Z,20.92
2018-12-07T04:41:05.307Z,20.64
2018-12-07T04:42:05.317Z,21.02
2018-12-07T04:43:05.284Z,21.02
2018-12-07T04:44:05.274Z,21.12
2018-12-07T04:45:05.256Z,21.21
2018-12-07T04:46:05.290Z,21.21
2018-12-07T04:47:05.234Z,22.26
2018-12-07T04:48:04.978Z,22.26
2018-12-07T04:49:05.321Z,23.02
2018-12-07T04:50:05.198Z,22.92
2018-12-07T04:51:05.221Z,23.4
2018-12-07T04:52:05.197Z,23.78
2018-12-07T04:53:05.187Z,23.59
2018-12-07T04:54:05.169Z,23.4
2018-12-07T04:55:05.142Z,23.88
2018-12-07T04:56:05.137Z,23.78
2018-12-07T04:57:05.118Z,24.26
2018-12-07T04:58:05.110Z,24.82
2018-12-07T04:59:05.106Z,25.4
2018-12-07T05:00:04.839Z,25.49
2018-12-07T05:01:05.078Z,26.06
2018-12-07T05:02:05.100Z,26.35
2018-12-07T05:03:05.055Z,25.96
2018-12-07T05:04:05.039Z,26.44
2018-12-07T05:05:05.053Z,26.92
2018-12-07T05:06:05.020Z,27.49
2018-12-07T05:07:05.001Z,27.11
2018-12-07T05:08:04.995Z,27.2
2018-12-07T05:09:04.982Z,27.58
2018-12-07T05:10:04.974Z,27.68
2018-12-07T05:11:04.970Z,27.97
2018-12-07T05:12:04.944Z,27.68
2018-12-07T05:13:04.939Z,27.49
2018-12-07T05:14:04.928Z,27.2
2018-12-07T05:15:04.915Z,27.01
2018-12-07T05:16:04.905Z,26.35
2018-12-07T05:17:04.889Z,25.96
2018-12-07T05:18:04.876Z,25.78
2018-12-07T05:19:04.619Z,25.49
2018-12-07T05:20:04.853Z,25.4
2018-12-07T05:21:04.839Z,25.4
2018-12-07T05:22:04.834Z,24.82
2018-12-07T05:23:04.816Z,24.82
2018-12-07T05:24:04.860Z,24.73
2018-12-07T05:25:04.805Z,24.44
2018-12-07T05:26:04.785Z,24.35
2018-12-07T05:27:04.519Z,24.35
2018-12-07T05:28:04.759Z,24.07
2018-12-07T05:29:04.745Z,24.16
2018-12-07T05:30:04.735Z,23.88
2018-12-07T05:31:04.744Z,23.68
2018-12-07T05:32:04.709Z,23.02
2018-12-07T05:33:04.699Z,22.92
2018-12-07T05:34:04.701Z,22.45
2018-12-07T05:35:04.672Z,22.26
2018-12-07T05:36:04.659Z,22.26
2018-12-07T05:37:04.402Z,22.35
2018-12-07T05:38:04.638Z,21.97
2018-12-07T05:39:04.628Z,22.64
2018-12-07T05:40:04.718Z,22.74
2018-12-07T05:41:04.604Z,22.83
2018-12-07T05:42:04.594Z,22.64
2018-12-07T05:43:04.595Z,22.35
2018-12-07T05:44:04.596Z,22.16
2018-12-07T05:45:04.649Z,22.35
2018-12-07T05:46:04.643Z,22.16
2018-12-07T05:47:04.537Z,22.16
2018-12-07T05:48:04.594Z,22.16
2018-12-07T05:49:04.531Z,21.78
2018-12-07T05:50:04.504Z,21.97
2018-12-07T05:51:04.488Z,21.78
2018-12-07T05:52:04.226Z,21.5
2018-12-07T05:53:04.464Z,21.59
2018-12-07T05:54:04.453Z,22.06
2018-12-07T05:55:04.448Z,22.45
2018-12-07T05:56:04.433Z,22.35
2018-12-07T05:57:04.165Z,22.74
2018-12-07T05:58:04.405Z,23.3
2018-12-07T05:59:04.396Z,23.3
2018-12-07T06:00:04.383Z,23.3
2018-12-07T06:01:04.372Z,23.78
2018-12-07T06:02:04.357Z,23.68
2018-12-07T06:03:04.371Z,23.68
2018-12-07T06:04:04.344Z,24.44
2018-12-07T06:05:04.326Z,25.49
2018-12-07T06:06:04.314Z,26.06
2018-12-07T06:07:04.299Z,26.16
2018-12-07T06:08:04.285Z,27.3
2018-12-07T06:09:04.275Z,27.11
2018-12-07T06:10:04.263Z,27.3
2018-12-07T06:11:04.257Z,27.97
2018-12-07T06:12:04.243Z,29.11
2018-12-07T06:13:04.239Z,29.11
2018-12-07T06:14:04.216Z,29.68
2018-12-07T06:15:04.207Z,30.34
2018-12-07T06:16:04.195Z,30.82
2018-12-07T06:17:04.190Z,31.48
2018-12-07T06:18:03.950Z,31.29
2018-12-07T06:19:04.160Z,31.58
2018-12-07T06:20:04.153Z,31.48
2018-12-07T06:21:04.134Z,32.15
2018-12-07T06:22:04.126Z,32.15
2018-12-07T06:23:04.115Z,32.43
2018-12-07T06:24:04.103Z,32.34
2018-12-07T06:25:04.107Z,32.24
2018-12-07T06:26:04.080Z,32.15
2018-12-07T06:27:03.822Z,32.15
2018-12-07T06:28:03.806Z,32.15
2018-12-07T06:29:04.045Z,32.06
2018-12-07T06:30:04.037Z,31.58
2018-12-07T06:31:04.025Z,30.73
2018-12-07T06:32:04.008Z,29.58
2018-12-07T06:33:04.001Z,29.2
2018-12-07T06:34:03.986Z,29.11
2018-12-07T06:35:03.726Z,28.92
2018-12-07T06:36:03.969Z,28.16
2018-12-07T06:37:03.950Z,27.97
2018-12-07T06:38:03.938Z,27.2
2018-12-07T06:39:03.927Z,26.92
2018-12-07T06:40:03.921Z,26.16
2018-12-07T06:41:03.905Z,25.87
2018-12-07T06:42:03.891Z,24.44
2018-12-07T06:43:03.632Z,24.26
2018-12-07T06:44:03.875Z,23.3
2018-12-07T06:45:03.858Z,22.35
2018-12-07T06:46:03.847Z,21.97
2018-12-07T06:47:03.833Z,21.97
2018-12-07T06:48:03.819Z,21.5
2018-12-07T06:49:03.808Z,20.92
2018-12-07T06:50:03.798Z,20.54
2018-12-07T06:51:03.541Z,20.07
2018-12-07T06:52:03.777Z,19.21
2018-12-07T06:53:03.762Z,19.31
2018-12-07T06:54:03.750Z,18.93
2018-12-07T06:55:03.743Z,18.74
2018-12-07T06:56:03.760Z,18.36
2018-12-07T06:57:03.716Z,17.88
2018-12-07T06:58:03.713Z,17.6
2018-12-07T06:59:03.447Z,17.02
2018-12-07T07:00:03.682Z,17.02
2018-12-07T07:01:03.668Z,16.83
2018-12-07T07:02:03.657Z,16.74
2018-12-07T07:03:03.648Z,16.93
2018-12-07T07:04:03.637Z,16.74
2018-12-07T07:05:03.656Z,16.83
2018-12-07T07:06:03.612Z,16.83
2018-12-07T07:07:05.206Z,16.93
2018-12-07T07:08:03.588Z,17.41
2018-12-07T07:09:03.579Z,17.41
2018-12-07T07:10:03.567Z,17.22
2018-12-07T07:11:03.552Z,17.22
2018-12-07T07:12:03.538Z,17.41
2018-12-07T07:13:03.529Z,17.22
2018-12-07T07:14:03.523Z,17.6
2018-12-07T07:15:03.508Z,18.07
2018-12-07T07:16:03.493Z,19.02
2018-12-07T07:17:03.479Z,20.45
2018-12-07T07:18:03.476Z,21.31
2018-12-07T07:19:03.458Z,21.69
2018-12-07T07:20:03.446Z,22.35
2018-12-07T07:21:03.187Z,23.02
2018-12-07T07:22:03.425Z,23.49
2018-12-07T07:23:03.417Z,24.44
2018-12-07T07:24:03.403Z,25.49
2018-12-07T07:25:03.386Z,26.35
2018-12-07T07:26:03.375Z,27.3
2018-12-07T07:27:03.364Z,27.87
2018-12-07T07:28:03.395Z,28.53
2018-12-07T07:29:03.339Z,29.01
2018-12-07T07:30:03.329Z,29.49
2018-12-07T07:31:03.340Z,29.96
2018-12-07T07:32:03.309Z,30.82
2018-12-07T07:33:03.296Z,31.39
2018-12-07T07:34:03.285Z,31.48
2018-12-07T07:35:03.274Z,32.15
2018-12-07T07:36:03.266Z,33.29
2018-12-07T07:37:03.001Z,33.77
2018-12-07T07:38:03.238Z,34.44
2018-12-07T07:39:03.230Z,34.81
2018-12-07T07:40:03.212Z,35.86
2018-12-07T07:41:03.209Z,36.15
2018-12-07T07:42:03.194Z,36.53
2018-12-07T07:43:03.181Z,36.62
2018-12-07T07:44:02.921Z,36.72
2018-12-07T07:45:03.182Z,36.62
2018-12-07T07:46:03.144Z,37.38
2018-12-07T07:47:03.196Z,38.24
2018-12-07T07:48:03.126Z,39.09
2018-12-07T07:49:03.113Z,40.14
2018-12-07T07:50:03.102Z,40.9
2018-12-07T07:51:03.085Z,41.28
2018-12-07T07:52:03.074Z,41.57
2018-12-07T07:53:02.816Z,41.76
2018-12-07T07:54:03.055Z,42.14
2018-12-07T07:55:03.044Z,41.95
2018-12-07T07:56:03.028Z,42.04
2018-12-07T07:57:03.045Z,41.85
2018-12-07T07:58:02.758Z,42.25
2018-12-07T07:59:02.995Z,42.9
2018-12-07T08:00:02.985Z,43.49
2018-12-07T08:01:02.973Z,44.04
2018-12-07T08:02:02.965Z,45.18
2018-12-07T08:03:02.956Z,45.3
2018-12-07T08:04:02.694Z,45.11
2018-12-07T08:05:02.930Z,45.49
2018-12-07T08:06:02.915Z,47.02
2018-12-07T08:07:02.907Z,47.56
2018-12-07T08:08:02.897Z,48.16
2018-12-07T08:09:02.884Z,48.32
2018-12-07T08:10:02.874Z,49.2
2018-12-07T08:11:02.859Z,49.3
2018-12-07T08:12:02.598Z,50.54
2018-12-07T08:13:02.841Z,50.92
2018-12-07T08:14:02.579Z,51.1
2018-12-07T08:15:02.823Z,51.01
2018-12-07T08:16:02.805Z,51.97
2018-12-07T08:17:02.791Z,52.53
2018-12-07T08:18:02.786Z,52.63
2018-12-07T08:19:02.778Z,52.06
2018-12-07T08:20:02.763Z,52.44
2018-12-07T08:21:02.749Z,53.39
2018-12-07T08:22:02.963Z,54.72
2018-12-07T08:23:02.476Z,54.63
2018-12-07T08:24:02.712Z,54.35
2018-12-07T08:25:02.701Z,54.82
2018-12-07T08:26:02.444Z,57.39
2018-12-07T08:27:02.680Z,56.72
2018-12-07T08:28:02.669Z,56.24
2018-12-07T08:29:02.657Z,56.15
2018-12-07T08:30:02.647Z,57.87
2018-12-07T08:31:02.636Z,57.2
2018-12-07T08:32:02.627Z,56.72
2018-12-07T08:33:02.614Z,56.24
2018-12-07T08:34:02.785Z,55.29
2018-12-07T08:35:02.587Z,54.63
2018-12-07T08:36:02.575Z,53.3
2018-12-07T08:37:02.569Z,52.63
2018-12-07T08:38:02.558Z,52.34
2018-12-07T08:39:02.544Z,51.39
2018-12-07T08:40:02.542Z,50.92
2018-12-07T08:41:02.529Z,51.01
2018-12-07T08:42:09.028Z,50.82
2018-12-07T08:43:02.499Z,49.01
2018-12-07T08:44:02.489Z,48.06
2018-12-07T08:45:02.229Z,48.06
2018-12-07T08:46:02.233Z,46.54
2018-12-07T08:47:02.454Z,46.73
2018-12-07T08:48:02.453Z,45.97
2018-12-07T08:49:02.434Z,45.78
2018-12-07T08:50:02.427Z,45.97
2018-12-07T08:51:02.415Z,45.3
2018-12-07T08:52:02.404Z,45.11
2018-12-07T08:53:02.392Z,44.54
2018-12-07T08:54:02.379Z,44.45
2018-12-07T08:55:02.377Z,44.54
2018-12-07T08:56:02.388Z,44.16
2018-12-07T08:57:02.093Z,44.06
2018-12-07T08:58:02.336Z,43.78
2018-12-07T08:59:02.322Z,43.68
2018-12-07T09:00:02.308Z,43.97
2018-12-07T09:01:02.295Z,44.45
2018-12-07T09:02:02.286Z,45.49
2018-12-07T09:03:02.281Z,45.3
2018-12-07T09:04:02.262Z,44.92
2018-12-07T09:05:02.260Z,44.92
2018-12-07T09:06:02.244Z,44.73
2018-12-07T09:07:02.234Z,44.54
2018-12-07T09:08:02.222Z,43.59
2018-12-07T09:09:02.215Z,42.92
2018-12-07T09:10:02.198Z,43.11
2018-12-07T09:11:02.188Z,44.06
2018-12-07T09:12:02.179Z,44.45
2018-12-07T09:13:01.917Z,44.82
2018-12-07T09:14:02.154Z,46.25
2018-12-07T09:15:02.151Z,46.63
2018-12-07T09:16:02.130Z,46.73
2018-12-07T09:17:02.125Z,46.44
2018-12-07T09:18:02.113Z,46.54
2018-12-07T09:19:02.096Z,47.58
2018-12-07T09:20:02.087Z,49.01
2018-12-07T09:21:02.075Z,48.92
2018-12-07T09:22:02.062Z,47.39
2018-12-07T09:23:01.803Z,47.97
2018-12-07T09:24:01.797Z,47.02
2018-12-07T09:25:02.037Z,45.97
2018-12-07T09:26:02.018Z,45.59
2018-12-07T09:27:02.008Z,45.49
2018-12-07T09:28:01.999Z,45.87
2018-12-07T09:29:01.985Z,45.59
2018-12-07T09:30:01.975Z,45.01
2018-12-07T09:31:01.967Z,44.26
2018-12-07T09:32:01.953Z,44.54
2018-12-07T09:33:01.941Z,46.54
2018-12-07T09:34:01.687Z,46.54
2018-12-07T09:35:01.922Z,46.73
2018-12-07T09:36:01.911Z,46.44
2018-12-07T09:37:01.897Z,47.02
2018-12-07T09:38:01.886Z,47.68
2018-12-07T09:39:01.881Z,47.49
2018-12-07T09:40:01.868Z,49.11
2018-12-07T09:41:01.857Z,50.44
2018-12-07T09:42:01.842Z,50.82
2018-12-07T09:43:01.581Z,50.73
2018-12-07T09:44:01.571Z,51.39
2018-12-07T09:45:01.564Z,51.01
2018-12-07T09:46:01.802Z,51.68
2018-12-07T09:47:01.792Z,52.25
2018-12-07T09:48:01.779Z,52.06
2018-12-07T09:49:01.516Z,52.53
2018-12-07T09:50:01.757Z,52.72
2018-12-07T09:51:01.743Z,53.3
2018-12-07T09:52:01.731Z,53.39
2018-12-07T09:53:01.724Z,52.72
2018-12-07T09:54:01.715Z,52.63
2018-12-07T09:55:01.455Z,51.87
2018-12-07T09:56:01.691Z,51.2
2018-12-07T09:57:01.684Z,51.87
2018-12-07T09:58:01.671Z,51.78
2018-12-07T09:59:01.481Z,52.53
2018-12-07T10:00:01.645Z,53.2
2018-12-07T10:01:01.633Z,53.49
2018-12-07T10:02:01.628Z,54.82
2018-12-07T10:03:01.614Z,55.58
2018-12-07T10:04:01.599Z,56.24
2018-12-07T10:05:01.593Z,57.67
2018-12-07T10:06:01.584Z,58.72
2018-12-07T10:07:01.567Z,60.24
2018-12-07T10:08:01.557Z,61.38
2018-12-07T10:09:01.551Z,61.67
2018-12-07T10:10:01.539Z,62.05
2018-12-07T10:11:01.526Z,62.62
2018-12-07T10:12:01.515Z,62.05
2018-12-07T10:13:07.665Z,61.1
2018-12-07T10:14:01.489Z,62.05
2018-12-07T10:15:01.568Z,61.77
2018-12-07T10:16:01.468Z,61.77
2018-12-07T10:17:01.458Z,61.67
2018-12-07T10:18:01.449Z,62.24
2018-12-07T10:19:01.439Z,62.34
2018-12-07T10:20:01.425Z,62.81
2018-12-07T10:21:01.490Z,63.1
2018-12-07T10:22:01.409Z,62.81
2018-12-07T10:23:01.395Z,63.57
2018-12-07T10:24:01.383Z,64.62
2018-12-07T10:25:01.372Z,64.43
2018-12-07T10:26:01.358Z,65.95
2018-12-07T10:27:01.350Z,66.43
2018-12-07T10:28:01.337Z,66.43
2018-12-07T10:29:01.329Z,66.24
2018-12-07T10:30:01.319Z,64.9
2018-12-07T10:31:01.350Z,63.01
2018-12-07T10:32:01.295Z,62.34
2018-12-07T10:33:01.299Z,63.2
2018-12-07T10:34:01.278Z,63.67
2018-12-07T10:35:01.267Z,64.62
2018-12-07T10:36:01.251Z,64.53
2018-12-07T10:37:01.241Z,66.33
2018-12-07T10:38:01.226Z,66.05
2018-12-07T10:39:01.220Z,64.53
2018-12-07T10:40:01.205Z,63.67
2018-12-07T10:41:00.950Z,64.43
2018-12-07T10:42:02.413Z,64.05
2018-12-07T10:43:01.177Z,64.05
2018-12-07T10:44:01.164Z,64.9
2018-12-07T10:45:01.158Z,66.24
2018-12-07T10:46:01.141Z,65.58
2018-12-07T10:47:01.129Z,65.86
2018-12-07T10:48:01.119Z,68.33
2018-12-07T10:49:01.106Z,68.15
2018-12-07T10:50:01.098Z,68.24
2018-12-07T10:51:07.696Z,70.62
2018-12-07T10:52:01.077Z,70.24
2018-12-07T10:53:01.063Z,70.52
2018-12-07T10:54:01.050Z,70.33
2018-12-07T10:55:00.792Z,71
2018-12-07T10:56:01.030Z,72.14
2018-12-07T10:57:01.017Z,73.47
2018-12-07T10:58:01.007Z,73.28
2018-12-07T10:59:00.748Z,73.47
2018-12-07T11:00:00.988Z,72.05
2018-12-07T11:01:00.731Z,71.19
2018-12-07T11:02:00.716Z,70.24
2018-12-07T11:03:00.949Z,69.29
2018-12-07T11:04:00.940Z,70.14
2018-12-07T11:05:00.931Z,70.49
2018-12-07T11:06:00.918Z,69.1
2018-12-07T11:07:00.907Z,70.24
2018-12-07T11:08:00.899Z,71.67
2018-12-07T11:09:00.634Z,72.81
2018-12-07T11:10:00.875Z,74.04
2018-12-07T11:11:00.860Z,74.71
2018-12-07T11:12:00.853Z,73.38
2018-12-07T11:13:00.842Z,73.85
2018-12-07T11:14:00.579Z,72.42
2018-12-07T11:15:00.820Z,70.52
2018-12-07T11:16:00.808Z,73.38
2018-12-07T11:17:00.798Z,73.95
2018-12-07T11:18:00.785Z,73.85
2018-12-07T11:19:00.777Z,72.81
2018-12-07T11:20:00.766Z,73.19
2018-12-07T11:21:00.752Z,73.57
2018-12-07T11:22:00.751Z,72.14
2018-12-07T11:23:00.739Z,71.47
2018-12-07T11:24:00.719Z,73.28
2018-12-07T11:25:00.707Z,74.9
2018-12-07T11:26:00.696Z,74.99
2018-12-07T11:27:00.690Z,74.33
2018-12-07T11:28:00.674Z,73.47
2018-12-07T11:29:00.662Z,71.86
2018-12-07T11:30:00.655Z,70.9
2018-12-07T11:31:00.392Z,69.38
2018-12-07T11:32:00.631Z,68.43
2018-12-07T11:33:00.623Z,68.15
2018-12-07T11:34:00.608Z,68.43
2018-12-07T11:35:00.602Z,67.07
2018-12-07T11:36:07.922Z,65.25
2018-12-07T11:37:00.575Z,65.16
2018-12-07T11:38:00.564Z,64.02
2018-12-07T11:39:00.613Z,60.97
2018-12-07T11:40:00.542Z,60.12
2018-12-07T11:41:00.530Z,61.07
2018-12-07T11:42:00.519Z,60.5
2018-12-07T11:43:00.506Z,60.41
2018-12-07T11:44:00.496Z,62.88
2018-12-07T11:45:00.486Z,63.17
2018-12-07T11:46:00.475Z,62.69
2018-12-07T11:47:00.461Z,62.49
2018-12-07T11:48:00.533Z,61.55
2018-12-07T11:49:00.438Z,60.41
2018-12-07T11:50:00.424Z,58.22
2018-12-07T11:51:00.421Z,55.74
2018-12-07T11:52:00.404Z,55.36
2018-12-07T11:53:00.394Z,54.41
2018-12-07T11:54:00.382Z,53.84
2018-12-07T11:55:00.370Z,53.46
2018-12-07T11:56:00.366Z,52.7
2018-12-07T11:57:00.350Z,51.84
2018-12-07T11:58:00.414Z,51.27
2018-12-07T11:59:00.323Z,51.18
2018-12-07T12:00:00.066Z,55.08
2018-12-07T12:01:00.055Z,57.07
2018-12-07T12:02:00.290Z,57.93
2018-12-07T12:03:00.330Z,57.17
2018-12-07T12:04:00.269Z,57.74
2018-12-07T12:05:00.257Z,56.7
2018-12-07T12:06:00.249Z,57.74
2018-12-07T12:07:00.235Z,57.74
2018-12-07T12:08:00.000Z,60.6
2018-12-07T12:09:00.211Z,62.12
2018-12-07T12:10:00.197Z,62.97
2018-12-07T12:11:00.189Z,62.69
2018-12-07T12:12:00.179Z,61.74
2018-12-07T12:13:00.168Z,61.93
2018-12-07T12:14:00.154Z,61.83
2018-12-07T12:15:00.143Z,61.83
2018-12-07T12:16:00.133Z,62.02
2018-12-07T12:17:00.119Z,62.59
2018-12-07T12:18:00.119Z,63.35
2018-12-07T12:19:00.098Z,63.17
2018-12-07T12:20:00.085Z,62.88
2018-12-07T12:21:00.076Z,63.35
2018-12-07T12:22:00.066Z,63.17
2018-12-07T12:23:00.155Z,63.17
2018-12-07T12:24:00.047Z,61.93
2018-12-07T12:25:00.031Z,60.31
2018-12-07T12:26:00.045Z,61.64
2018-12-07T12:27:00.004Z,63.73
2018-12-07T12:28:00.068Z,64.4
2018-12-07T12:29:00.002Z,63.17
2018-12-07T12:29:59.972Z,62.12
2018-12-07T12:30:59.963Z,60.97
2018-12-07T12:31:59.953Z,59.27
2018-12-07T12:32:59.935Z,59.93
2018-12-07T12:33:59.924Z,60.21
2018-12-07T12:34:59.910Z,61.64
2018-12-07T12:35:59.653Z,61.64
2018-12-07T12:36:59.899Z,61.83
2018-12-07T12:37:59.880Z,61.74
2018-12-07T12:38:59.870Z,61.26
2018-12-07T12:39:59.945Z,62.88
2018-12-07T12:40:59.845Z,62.59
2018-12-07T12:41:59.835Z,61.74
2018-12-07T12:42:59.830Z,61.74
2018-12-07T12:43:59.810Z,61.26
2018-12-07T12:44:59.797Z,61.64
2018-12-07T12:45:59.786Z,61.64
2018-12-07T12:46:59.794Z,64.11
2018-12-07T12:47:59.771Z,64.02
2018-12-07T12:48:59.754Z,62.59
2018-12-07T12:49:59.740Z,64.02
2018-12-07T12:50:59.724Z,65.06
2018-12-07T12:51:59.467Z,65.16
2018-12-07T12:52:59.705Z,66.39
2018-12-07T12:53:59.693Z,67.63
2018-12-07T12:54:59.682Z,70.1